createdAt,value
2017-08-25T00:01:56.452Z,20.20
2017-08-25T00:04:25.081Z,20.20
2017-08-25T00:06:52.729Z,20.10
2017-08-25T00:09:20.376Z,20.10
2017-08-25T00:11:48.064Z,20.10
2017-08-25T00:14:16.532Z,20.10
2017-08-25T00:16:44.370Z,20.00
2017-08-25T00:19:12.170Z,20.00
2017-08-25T00:21:39.921Z,20.00
2017-08-25T00:24:07.558Z,20.00
2017-08-25T00:26:35.427Z,19.90
2017-08-25T00:29:03.067Z,19.90
2017-08-25T00:31:30.777Z,19.90
2017-08-25T00:33:58.541Z,19.80
2017-08-25T00:36:26.277Z,19.80
2017-08-25T00:38:54.042Z,19.80
2017-08-25T00:41:21.836Z,19.80
2017-08-25T00:43:49.483Z,19.80
2017-08-25T00:46:17.152Z,19.80
2017-08-25T00:48:44.994Z,19.80
2017-08-25T00:51:12.760Z,19.70
2017-08-25T00:53:40.422Z,19.70
2017-08-25T00:56:08.209Z,19.70
2017-08-25T00:58:35.951Z,19.70
2017-08-25T01:01:03.630Z,19.70
2017-08-25T01:03:31.401Z,19.60
2017-08-25T01:05:59.144Z,19.60
2017-08-25T01:08:26.911Z,19.60
2017-08-25T01:10:54.774Z,19.60
2017-08-25T01:13:22.536Z,19.60
2017-08-25T01:15:50.301Z,19.60
2017-08-25T01:18:17.990Z,19.50
2017-08-25T01:20:45.724Z,19.50
2017-08-25T01:23:13.389Z,19.50
2017-08-25T01:25:41.173Z,19.40
2017-08-25T01:28:08.919Z,19.40
2017-08-25T01:30:36.684Z,19.40
2017-08-25T01:33:04.471Z,19.30
2017-08-25T01:35:32.239Z,19.30
2017-08-25T01:37:59.975Z,19.30
2017-08-25T01:40:27.743Z,19.30
2017-08-25T01:42:55.502Z,19.20
2017-08-25T01:45:23.369Z,19.20
2017-08-25T01:47:51.038Z,19.20
2017-08-25T01:50:18.724Z,19.20
2017-08-25T01:52:46.458Z,19.10
2017-08-25T01:55:14.128Z,19.10
2017-08-25T01:57:41.885Z,19.10
2017-08-25T02:00:09.563Z,19.10
2017-08-25T02:02:37.238Z,19.10
2017-08-25T02:05:05.082Z,19.00
2017-08-25T02:07:32.944Z,19.00
2017-08-25T02:10:00.576Z,18.90
2017-08-25T02:12:28.368Z,18.90
2017-08-25T02:14:56.154Z,18.90
2017-08-25T02:17:23.899Z,18.90
2017-08-25T02:19:51.660Z,18.90
2017-08-25T02:22:19.427Z,18.90
2017-08-25T02:24:47.211Z,18.80
2017-08-25T02:27:14.952Z,18.80
2017-08-25T02:29:42.821Z,18.80
2017-08-25T02:32:10.589Z,18.80
2017-08-25T02:34:38.357Z,18.80
2017-08-25T02:37:06.139Z,18.80
2017-08-25T02:39:33.977Z,18.80
2017-08-25T02:42:01.659Z,18.70
2017-08-25T02:44:29.355Z,18.70
2017-08-25T02:46:56.995Z,18.70
2017-08-25T02:49:24.828Z,18.70
2017-08-25T02:51:52.467Z,18.60
2017-08-25T02:54:20.107Z,18.60
2017-08-25T02:56:47.919Z,18.60
2017-08-25T02:59:15.681Z,18.60
2017-08-25T03:01:43.446Z,18.50
2017-08-25T03:04:11.316Z,18.50
2017-08-25T03:06:39.080Z,18.40
2017-08-25T03:09:06.736Z,18.40
2017-08-25T03:11:34.523Z,18.40
2017-08-25T03:14:02.267Z,18.40
2017-08-25T03:16:29.962Z,18.30
2017-08-25T03:18:57.693Z,18.30
2017-08-25T03:21:25.465Z,18.30
2017-08-25T03:23:53.143Z,18.20
2017-08-25T03:26:20.988Z,18.20
2017-08-25T03:28:48.623Z,18.20
2017-08-25T03:31:16.331Z,18.10
2017-08-25T03:33:44.176Z,18.10
2017-08-25T03:36:11.870Z,18.10
2017-08-25T03:38:39.605Z,18.00
2017-08-25T03:41:07.469Z,18.00
2017-08-25T03:43:35.233Z,18.00
2017-08-25T03:46:02.917Z,17.90
2017-08-25T03:48:30.656Z,17.90
2017-08-25T03:50:58.421Z,17.90
2017-08-25T03:53:26.127Z,17.80
2017-08-25T03:55:53.949Z,17.90
2017-08-25T03:58:21.715Z,17.80
2017-08-25T04:00:49.477Z,17.80
2017-08-25T04:03:17.140Z,17.70
2017-08-25T04:05:44.808Z,17.70
2017-08-25T04:08:12.490Z,17.70
2017-08-25T04:10:40.230Z,17.60
2017-08-25T04:13:07.993Z,17.60
2017-08-25T04:15:35.755Z,17.60
2017-08-25T04:18:03.444Z,17.60
2017-08-25T04:20:31.183Z,17.50
2017-08-25T04:22:58.866Z,17.50
2017-08-25T04:25:26.609Z,17.50
2017-08-25T04:27:54.375Z,17.50
2017-08-25T04:30:22.135Z,17.50
2017-08-25T04:32:49.902Z,17.50
2017-08-25T04:35:17.578Z,17.40
2017-08-25T04:37:45.240Z,17.50
2017-08-25T04:40:13.025Z,17.50
2017-08-25T04:42:40.856Z,17.40
2017-08-25T04:45:08.621Z,17.40
2017-08-25T04:47:36.259Z,17.40
2017-08-25T04:50:04.050Z,17.40
2017-08-25T04:52:31.728Z,17.40
2017-08-25T04:54:59.477Z,17.50
2017-08-25T04:57:27.145Z,17.40
2017-08-25T04:59:54.902Z,17.50
2017-08-25T05:02:22.552Z,17.50
2017-08-25T05:04:50.254Z,17.50
2017-08-25T05:07:17.904Z,17.50
2017-08-25T05:09:45.594Z,17.50
2017-08-25T05:12:13.349Z,17.50
2017-08-25T05:14:41.178Z,17.50
2017-08-25T05:17:08.942Z,17.60
2017-08-25T05:19:36.636Z,17.50
2017-08-25T05:22:04.415Z,17.60
2017-08-25T05:24:32.231Z,17.60
2017-08-25T05:26:59.999Z,17.60
2017-08-25T05:29:27.688Z,17.60
2017-08-25T05:31:55.381Z,17.60
2017-08-25T05:34:23.019Z,17.70
2017-08-25T05:36:50.712Z,17.70
2017-08-25T05:39:18.374Z,17.70
2017-08-25T05:41:46.092Z,17.70
2017-08-25T05:44:15.015Z,17.80
2017-08-25T05:46:42.835Z,17.80
2017-08-25T05:49:10.695Z,17.80
2017-08-25T05:51:38.462Z,17.90
2017-08-25T05:54:06.121Z,17.90
2017-08-25T05:56:33.990Z,17.90
2017-08-25T05:59:01.647Z,18.00
2017-08-25T06:01:29.336Z,18.00
2017-08-25T06:03:57.035Z,18.00
2017-08-25T06:06:24.764Z,18.10
2017-08-25T06:08:52.553Z,18.10
2017-08-25T06:11:20.288Z,18.10
2017-08-25T06:13:47.965Z,18.20
2017-08-25T06:16:15.798Z,18.20
2017-08-25T06:18:43.479Z,18.30
2017-08-25T06:21:11.255Z,18.30
2017-08-25T06:23:39.091Z,18.30
2017-08-25T06:26:06.757Z,18.30
2017-08-25T06:28:34.515Z,18.40
2017-08-25T06:31:02.278Z,18.40
2017-08-25T06:33:30.040Z,18.40
2017-08-25T06:35:57.742Z,18.50
2017-08-25T06:38:25.503Z,18.50
2017-08-25T06:40:53.352Z,18.50
2017-08-25T06:43:21.208Z,18.60
2017-08-25T06:45:48.843Z,18.60
2017-08-25T06:48:16.531Z,18.60
2017-08-25T06:50:44.287Z,18.70
2017-08-25T06:53:12.079Z,18.70
2017-08-25T06:55:39.922Z,18.70
2017-08-25T06:58:07.610Z,18.80
2017-08-25T07:00:35.306Z,18.80
2017-08-25T07:03:03.029Z,18.80
2017-08-25T07:05:30.693Z,18.90
2017-08-25T07:07:58.538Z,19.00
2017-08-25T07:10:26.300Z,19.00
2017-08-25T07:12:53.953Z,19.10
2017-08-25T07:15:21.624Z,19.20
2017-08-25T07:17:49.281Z,19.20
2017-08-25T07:20:16.991Z,19.30
2017-08-25T07:22:44.655Z,19.30
2017-08-25T07:25:12.352Z,19.40
2017-08-25T07:27:40.006Z,19.40
2017-08-25T07:30:07.730Z,19.50
2017-08-25T07:32:35.416Z,19.50
2017-08-25T07:35:03.152Z,19.60
2017-08-25T07:37:30.828Z,19.60
2017-08-25T07:39:58.481Z,19.70
2017-08-25T07:42:26.164Z,19.70
2017-08-25T07:44:53.796Z,19.80
2017-08-25T07:47:21.564Z,19.80
2017-08-25T07:49:49.226Z,19.90
2017-08-25T07:52:16.864Z,19.90
2017-08-25T07:54:44.568Z,20.00
2017-08-25T07:57:12.227Z,20.10
2017-08-25T07:59:39.889Z,20.10
2017-08-25T08:02:07.610Z,20.20
2017-08-25T08:04:35.293Z,20.30
2017-08-25T08:07:03.032Z,20.30
2017-08-25T08:09:30.800Z,20.40
2017-08-25T08:11:58.495Z,20.40
2017-08-25T08:14:26.260Z,20.50
2017-08-25T08:16:54.093Z,20.60
2017-08-25T08:19:21.758Z,20.70
2017-08-25T08:21:49.401Z,20.70
2017-08-25T08:24:17.072Z,20.80
2017-08-25T08:26:44.724Z,20.80
2017-08-25T08:29:12.363Z,20.90
2017-08-25T08:31:40.024Z,21.00
2017-08-25T08:34:07.694Z,21.00
2017-08-25T08:36:41.535Z,21.10
2017-08-25T08:39:09.297Z,21.10
2017-08-25T08:41:36.998Z,21.20
2017-08-25T08:44:04.645Z,21.20
2017-08-25T08:46:32.336Z,21.30
2017-08-25T08:48:59.988Z,21.30
2017-08-25T08:51:27.690Z,21.40
2017-08-25T08:53:55.344Z,21.40
2017-08-25T08:56:23.000Z,21.50
2017-08-25T08:58:50.793Z,21.50
2017-08-25T09:01:18.565Z,21.60
2017-08-25T09:03:46.350Z,21.60
2017-08-25T09:06:19.786Z,21.60
2017-08-25T09:08:47.440Z,21.60
2017-08-25T09:11:15.144Z,21.70
2017-08-25T09:13:42.909Z,21.70
2017-08-25T09:16:10.595Z,21.70
2017-08-25T09:18:38.437Z,21.80
2017-08-25T09:21:06.067Z,21.80
2017-08-25T09:23:33.864Z,21.90
2017-08-25T09:26:01.557Z,22.00
2017-08-25T09:28:29.196Z,22.10
2017-08-25T09:30:56.867Z,22.10
2017-08-25T09:33:24.525Z,22.20
2017-08-25T09:35:52.190Z,22.20
2017-08-25T09:38:19.858Z,22.30
2017-08-25T09:40:47.524Z,22.30
2017-08-25T09:43:15.195Z,22.30
2017-08-25T09:45:42.879Z,22.40
2017-08-25T09:48:10.540Z,22.40
2017-08-25T09:50:38.181Z,22.40
2017-08-25T09:53:05.857Z,22.50
2017-08-25T09:55:33.519Z,22.50
2017-08-25T09:58:01.190Z,22.60
2017-08-25T10:00:28.879Z,22.60
2017-08-25T10:02:56.658Z,22.70
2017-08-25T10:05:24.286Z,22.80
2017-08-25T10:07:51.961Z,22.90
2017-08-25T10:10:19.601Z,22.90
2017-08-25T10:12:47.294Z,23.00
2017-08-25T10:15:14.963Z,23.10
2017-08-25T10:17:42.660Z,23.20
2017-08-25T10:20:10.325Z,23.30
2017-08-25T10:22:37.991Z,23.40
2017-08-25T10:25:05.678Z,23.40
2017-08-25T10:27:33.329Z,23.50
2017-08-25T10:30:01.019Z,23.60
2017-08-25T10:32:28.680Z,23.70
2017-08-25T10:35:08.347Z,23.80
2017-08-25T10:37:47.720Z,23.90
2017-08-25T10:40:27.438Z,23.90
2017-08-25T10:43:07.085Z,23.90
2017-08-25T10:45:34.918Z,23.90
2017-08-25T10:48:02.698Z,24.00
2017-08-25T10:50:30.463Z,24.00
2017-08-25T10:52:58.329Z,24.10
2017-08-25T10:55:25.974Z,24.20
2017-08-25T10:57:53.654Z,24.20
2017-08-25T11:00:21.441Z,24.20
2017-08-25T11:02:49.189Z,24.30
2017-08-25T11:05:16.840Z,24.30
2017-08-25T11:07:44.535Z,24.30
2017-08-25T11:10:12.211Z,24.40
2017-08-25T11:12:39.896Z,24.40
2017-08-25T11:15:07.621Z,24.50
2017-08-25T11:17:35.386Z,24.60
2017-08-25T11:20:03.124Z,24.70
2017-08-25T11:22:30.768Z,24.70
2017-08-25T11:24:58.468Z,24.80
2017-08-25T11:27:26.106Z,24.80
2017-08-25T11:29:53.745Z,24.90
2017-08-25T11:32:21.532Z,25.00
2017-08-25T11:34:49.196Z,25.00
2017-08-25T11:37:16.883Z,25.10
2017-08-25T11:39:44.577Z,25.20
2017-08-25T11:42:12.229Z,25.30
2017-08-25T11:44:39.987Z,25.40
2017-08-25T11:47:07.638Z,25.50
2017-08-25T11:49:35.550Z,25.60
2017-08-25T11:52:03.239Z,25.70
2017-08-25T11:54:31.109Z,25.70
2017-08-25T11:56:58.771Z,25.80
2017-08-25T11:59:26.435Z,25.80
2017-08-25T12:01:54.104Z,25.90
2017-08-25T12:04:21.749Z,25.90
2017-08-25T12:06:49.423Z,26.00
2017-08-25T12:09:17.095Z,26.00
2017-08-25T12:11:44.748Z,26.00
2017-08-25T12:14:12.428Z,26.00
2017-08-25T12:16:40.089Z,26.00
2017-08-25T12:19:07.748Z,26.00
2017-08-25T12:21:35.770Z,25.90
2017-08-25T12:24:03.406Z,25.90
2017-08-25T12:26:31.075Z,26.00
2017-08-25T12:28:58.754Z,25.90
2017-08-25T12:31:26.540Z,26.00
2017-08-25T12:33:54.196Z,26.00
2017-08-25T12:36:21.853Z,26.00
2017-08-25T12:38:49.546Z,26.10
2017-08-25T12:41:17.186Z,26.20
2017-08-25T12:43:44.836Z,26.20
2017-08-25T12:46:12.535Z,26.30
2017-08-25T12:48:40.172Z,26.30
2017-08-25T12:51:07.843Z,26.30
2017-08-25T12:53:35.499Z,26.40
2017-08-25T12:56:03.193Z,26.50
2017-08-25T12:58:30.852Z,26.50
2017-08-25T13:00:58.531Z,26.50
2017-08-25T13:03:26.181Z,26.50
2017-08-25T13:05:53.912Z,26.40
2017-08-25T13:08:21.576Z,26.40
2017-08-25T13:10:49.272Z,26.40
2017-08-25T13:13:16.909Z,26.30
2017-08-25T13:15:44.560Z,26.40
2017-08-25T13:18:12.236Z,26.40
2017-08-25T13:20:39.920Z,26.40
2017-08-25T13:23:07.753Z,26.50
2017-08-25T13:25:35.526Z,26.50
2017-08-25T13:28:03.171Z,26.50
2017-08-25T13:30:31.051Z,26.60
2017-08-25T13:32:58.716Z,26.60
2017-08-25T13:35:26.375Z,26.70
2017-08-25T13:37:54.066Z,26.70
2017-08-25T13:40:21.705Z,26.80
2017-08-25T13:42:49.381Z,26.80
2017-08-25T13:45:17.029Z,26.90
2017-08-25T13:47:44.699Z,27.00
2017-08-25T13:50:12.372Z,27.00
2017-08-25T13:52:40.025Z,27.10
2017-08-25T13:55:07.695Z,27.10
2017-08-25T13:57:35.348Z,27.20
2017-08-25T14:00:03.047Z,27.20
2017-08-25T14:02:30.712Z,27.10
2017-08-25T14:04:58.357Z,27.10
2017-08-25T14:07:26.049Z,27.10
2017-08-25T14:09:53.708Z,27.10
2017-08-25T14:12:21.494Z,27.10
2017-08-25T14:14:49.194Z,27.00
2017-08-25T14:17:16.873Z,27.00
2017-08-25T14:19:44.604Z,27.10
2017-08-25T14:22:12.348Z,27.00
2017-08-25T14:24:40.017Z,27.10
2017-08-25T14:27:07.664Z,27.10
2017-08-25T14:29:35.330Z,27.10
2017-08-25T14:32:03.015Z,27.10
2017-08-25T14:34:30.681Z,27.20
2017-08-25T14:36:58.327Z,27.20
2017-08-25T14:39:26.017Z,27.20
2017-08-25T14:41:53.675Z,27.20
2017-08-25T14:44:21.343Z,27.10
2017-08-25T14:46:48.985Z,27.10
2017-08-25T14:49:16.660Z,27.10
2017-08-25T14:51:44.302Z,27.10
2017-08-25T14:54:12.007Z,27.00
2017-08-25T14:56:39.809Z,27.00
2017-08-25T14:59:07.457Z,26.90
2017-08-25T15:01:35.163Z,26.90
2017-08-25T15:04:02.817Z,26.90
2017-08-25T15:06:30.514Z,26.80
2017-08-25T15:08:58.159Z,26.80
2017-08-25T15:11:25.836Z,26.80
2017-08-25T15:13:53.491Z,26.90
2017-08-25T15:16:21.150Z,26.90
2017-08-25T15:18:48.852Z,26.90
2017-08-25T15:21:16.503Z,27.00
2017-08-25T15:23:44.229Z,26.90
2017-08-25T15:26:11.877Z,27.00
2017-08-25T15:28:39.546Z,26.90
2017-08-25T15:31:12.221Z,26.90
2017-08-25T15:33:39.870Z,27.00
2017-08-25T15:36:07.512Z,27.00
2017-08-25T15:38:35.189Z,26.90
2017-08-25T15:41:02.833Z,26.90
2017-08-25T15:43:30.561Z,26.90
2017-08-25T15:45:58.199Z,26.90
2017-08-25T15:48:25.854Z,26.90
2017-08-25T15:50:53.546Z,26.90
2017-08-25T15:53:21.191Z,26.80
2017-08-25T15:55:48.885Z,26.80
2017-08-25T15:58:16.550Z,26.80
2017-08-25T16:00:44.234Z,26.70
2017-08-25T16:03:11.898Z,26.70
2017-08-25T16:05:39.584Z,26.60
2017-08-25T16:08:07.240Z,26.50
2017-08-25T16:10:34.894Z,26.50
2017-08-25T16:13:02.573Z,26.50
2017-08-25T16:15:30.220Z,26.40
2017-08-25T16:17:57.947Z,26.30
2017-08-25T16:20:25.604Z,26.30
2017-08-25T16:22:53.270Z,26.20
2017-08-25T16:25:20.927Z,26.20
2017-08-25T16:27:48.563Z,26.20
2017-08-25T16:30:16.249Z,26.20
2017-08-25T16:32:43.911Z,26.20
2017-08-25T16:35:11.578Z,26.10
2017-08-25T16:37:39.258Z,26.10
2017-08-25T16:40:06.908Z,26.00
2017-08-25T16:42:34.571Z,25.90
2017-08-25T16:45:02.275Z,25.90
2017-08-25T16:47:29.947Z,25.90
2017-08-25T16:49:57.624Z,25.80
2017-08-25T16:52:25.255Z,25.70
2017-08-25T16:54:52.933Z,25.70
2017-08-25T16:57:20.599Z,25.60
2017-08-25T16:59:48.295Z,25.60
2017-08-25T17:02:15.946Z,25.60
2017-08-25T17:04:43.605Z,25.50
2017-08-25T17:07:11.289Z,25.50
2017-08-25T17:09:38.950Z,25.40
2017-08-25T17:12:06.647Z,25.30
2017-08-25T17:14:34.326Z,25.30
2017-08-25T17:17:02.005Z,25.20
2017-08-25T17:19:29.687Z,25.20
2017-08-25T17:21:57.376Z,25.10
2017-08-25T17:24:25.038Z,25.00
2017-08-25T17:26:52.692Z,24.90
2017-08-25T17:29:20.378Z,24.80
2017-08-25T17:31:48.030Z,24.80
2017-08-25T17:34:15.690Z,24.70
2017-08-25T17:36:43.383Z,24.60
2017-08-25T17:39:11.059Z,24.50
2017-08-25T17:41:38.718Z,24.50
2017-08-25T17:44:06.392Z,24.40
2017-08-25T17:46:34.033Z,24.40
2017-08-25T17:49:01.749Z,24.40
2017-08-25T17:51:29.382Z,24.40
2017-08-25T17:53:57.056Z,24.30
2017-08-25T17:56:24.707Z,24.30
2017-08-25T17:58:52.339Z,24.20
2017-08-25T18:01:20.017Z,24.20
2017-08-25T18:03:47.680Z,24.20
2017-08-25T18:06:15.347Z,24.10
2017-08-25T18:08:42.984Z,24.10
2017-08-25T18:11:10.662Z,24.00
2017-08-25T18:13:38.323Z,24.00
2017-08-25T18:16:05.992Z,24.00
2017-08-25T18:18:33.631Z,23.90
2017-08-25T18:21:01.282Z,23.80
2017-08-25T18:23:28.972Z,23.80
2017-08-25T18:25:56.621Z,23.80
2017-08-25T18:28:24.305Z,23.70
2017-08-25T18:30:51.957Z,23.60
2017-08-25T18:33:19.626Z,23.60
2017-08-25T18:35:47.308Z,23.50
2017-08-25T18:38:14.961Z,23.50
2017-08-25T18:40:42.678Z,23.40
2017-08-25T18:43:10.547Z,23.40
2017-08-25T18:45:38.244Z,23.30
2017-08-25T18:48:05.983Z,23.30
2017-08-25T18:50:33.652Z,23.30
2017-08-25T18:53:02.130Z,23.30
2017-08-25T18:55:29.877Z,23.20
2017-08-25T18:57:57.751Z,23.20
2017-08-25T19:00:25.510Z,23.10
2017-08-25T19:02:53.273Z,23.00
2017-08-25T19:05:21.035Z,22.90
2017-08-25T19:07:48.805Z,22.90
2017-08-25T19:10:16.593Z,22.80
2017-08-25T19:12:44.249Z,22.80
2017-08-25T19:15:12.095Z,22.70
2017-08-25T19:17:39.858Z,22.70
2017-08-25T19:20:07.535Z,22.60
2017-08-25T19:22:35.283Z,22.60
2017-08-25T19:25:03.048Z,22.50
2017-08-25T19:27:30.914Z,22.50
2017-08-25T19:29:58.681Z,22.40
2017-08-25T19:32:26.449Z,22.40
2017-08-25T19:34:54.210Z,22.40
2017-08-25T19:37:21.853Z,22.30
2017-08-25T19:39:49.500Z,22.30
2017-08-25T19:42:17.176Z,22.20
2017-08-25T19:44:44.825Z,22.20
2017-08-25T19:47:12.477Z,22.20
2017-08-25T19:49:40.160Z,22.10
2017-08-25T19:52:07.791Z,22.10
2017-08-25T19:54:35.456Z,22.10
2017-08-25T19:57:03.132Z,22.00
2017-08-25T19:59:30.774Z,22.00
2017-08-25T20:01:58.420Z,21.90
2017-08-25T20:04:26.119Z,21.80
2017-08-25T20:06:53.754Z,21.80
2017-08-25T20:09:21.383Z,21.80
2017-08-25T20:11:49.047Z,21.80
2017-08-25T20:14:16.702Z,21.70
2017-08-25T20:16:44.342Z,21.70
2017-08-25T20:19:12.034Z,21.70
2017-08-25T20:21:39.730Z,21.70
2017-08-25T20:24:07.393Z,21.60
2017-08-25T20:26:35.085Z,21.60
2017-08-25T20:29:02.734Z,21.60
2017-08-25T20:31:30.377Z,21.60
2017-08-25T20:33:58.191Z,21.50
2017-08-25T20:36:25.851Z,21.50
2017-08-25T20:38:53.500Z,21.50
2017-08-25T20:41:21.194Z,21.40
2017-08-25T20:43:48.829Z,21.30
2017-08-25T20:46:16.460Z,21.30
2017-08-25T20:48:44.162Z,21.20
2017-08-25T20:51:11.807Z,21.20
2017-08-25T20:53:39.494Z,21.10
2017-08-25T20:56:07.139Z,21.10
2017-08-25T20:58:34.789Z,21.10
2017-08-25T21:01:02.478Z,21.00
2017-08-25T21:03:30.127Z,21.00
2017-08-25T21:05:57.807Z,20.90
2017-08-25T21:08:25.461Z,20.90
2017-08-25T21:10:53.112Z,20.80
2017-08-25T21:13:20.792Z,20.80
2017-08-25T21:15:48.422Z,20.70
2017-08-25T21:18:16.248Z,20.70
2017-08-25T21:20:43.995Z,20.70
2017-08-25T21:23:11.843Z,20.60
2017-08-25T21:25:39.609Z,20.60
2017-08-25T21:28:07.372Z,20.60
2017-08-25T21:30:35.136Z,20.60
2017-08-25T21:33:02.907Z,20.50
2017-08-25T21:35:30.555Z,20.50
2017-08-25T21:37:58.253Z,20.40
2017-08-25T21:40:25.926Z,20.40
2017-08-25T21:42:53.619Z,20.30
2017-08-25T21:45:21.268Z,20.30
2017-08-25T21:47:48.909Z,20.30
2017-08-25T21:50:16.582Z,20.20
2017-08-25T21:52:44.228Z,20.20
2017-08-25T21:55:11.912Z,20.10
2017-08-25T21:57:39.560Z,20.10
2017-08-25T22:00:07.198Z,20.10
2017-08-25T22:02:34.880Z,20.00
2017-08-25T22:05:02.524Z,20.00
2017-08-25T22:07:30.205Z,20.00
2017-08-25T22:09:57.861Z,19.90
2017-08-25T22:12:25.537Z,19.90
2017-08-25T22:14:53.185Z,19.80
2017-08-25T22:17:20.818Z,19.80
2017-08-25T22:19:48.510Z,19.70
2017-08-25T22:22:16.143Z,19.60
2017-08-25T22:24:43.842Z,19.60
2017-08-25T22:27:11.483Z,19.60
2017-08-25T22:29:39.124Z,19.60
2017-08-25T22:32:06.786Z,19.60
2017-08-25T22:34:34.472Z,19.50
2017-08-25T22:37:02.210Z,19.50
2017-08-25T22:39:29.974Z,19.50
2017-08-25T22:41:57.642Z,19.50
2017-08-25T22:44:25.497Z,19.40
2017-08-25T22:46:53.265Z,19.40
2017-08-25T22:49:21.066Z,19.40
2017-08-25T22:51:48.726Z,19.40
2017-08-25T22:54:17.242Z,19.30
2017-08-25T22:56:44.939Z,19.30
2017-08-25T22:59:12.578Z,19.30
2017-08-25T23:01:40.257Z,19.20
2017-08-25T23:04:07.922Z,19.20
2017-08-25T23:06:35.581Z,19.10
2017-08-25T23:09:03.283Z,19.00
2017-08-25T23:11:31.045Z,19.00
2017-08-25T23:13:58.786Z,18.90
2017-08-25T23:16:26.449Z,18.90
2017-08-25T23:18:54.201Z,18.90
2017-08-25T23:21:22.067Z,18.90
2017-08-25T23:23:49.828Z,18.80
2017-08-25T23:26:17.596Z,18.80
2017-08-25T23:28:45.363Z,18.70
2017-08-25T23:31:13.026Z,18.60
2017-08-25T23:33:40.891Z,18.60
2017-08-25T23:36:08.530Z,18.60
2017-08-25T23:38:36.230Z,18.50
2017-08-25T23:41:03.893Z,18.50
2017-08-25T23:43:31.557Z,18.50
2017-08-25T23:45:59.269Z,18.50
2017-08-25T23:48:26.960Z,18.50
2017-08-25T23:50:54.653Z,18.50
2017-08-25T23:53:22.318Z,18.50
2017-08-25T23:55:49.951Z,18.50
2017-08-25T23:58:17.622Z,18.50
